createdAt,value
2022-10-03T00:02:09.998Z,99.90
2022-10-03T00:04:43.930Z,99.90
2022-10-03T00:07:29.206Z,99.90
2022-10-03T00:10:10.765Z,99.90
2022-10-03T00:12:59.108Z,99.90
2022-10-03T00:16:04.391Z,99.90
2022-10-03T00:18:38.084Z,99.90
2022-10-03T00:21:22.036Z,99.90
2022-10-03T00:24:20.161Z,99.90
2022-10-03T00:27:13.879Z,99.90
2022-10-03T00:29:44.109Z,99.90
2022-10-03T00:32:32.270Z,99.90
2022-10-03T00:35:18.642Z,99.90
2022-10-03T00:38:20.236Z,99.90
2022-10-03T00:41:02.358Z,99.90
2022-10-03T00:44:07.753Z,99.90
2022-10-03T00:47:21.412Z,99.90
2022-10-03T00:50:02.703Z,99.90
2022-10-03T00:52:54.487Z,99.90
2022-10-03T00:55:27.688Z,99.90
2022-10-03T00:58:16.711Z,99.90
2022-10-03T01:00:50.780Z,99.90
2022-10-03T01:03:38.313Z,99.90
2022-10-03T01:06:27.058Z,99.90
2022-10-03T01:09:06.950Z,99.90
2022-10-03T01:11:55.367Z,99.90
2022-10-03T01:14:41.157Z,99.90
2022-10-03T01:17:26.260Z,99.90
2022-10-03T01:20:27.147Z,99.90
2022-10-03T01:23:14.740Z,99.90
2022-10-03T01:25:53.334Z,99.90
2022-10-03T01:28:56.445Z,99.90
2022-10-03T01:31:33.265Z,99.90
2022-10-03T01:34:22.867Z,99.90
2022-10-03T01:37:15.516Z,99.90
2022-10-03T01:39:52.362Z,99.90
2022-10-03T01:42:52.950Z,99.90
2022-10-03T01:45:36.153Z,99.90
2022-10-03T01:48:22.938Z,99.90
2022-10-03T01:51:16.681Z,99.90
2022-10-03T01:54:19.969Z,99.90
2022-10-03T01:57:13.057Z,99.90
2022-10-03T01:59:48.647Z,99.90
2022-10-03T02:02:17.875Z,99.90
2022-10-03T02:04:45.116Z,99.90
2022-10-03T02:07:48.769Z,99.90
2022-10-03T02:10:33.596Z,99.90
2022-10-03T02:13:09.858Z,99.90
2022-10-03T02:15:57.852Z,99.90
2022-10-03T02:18:52.697Z,99.90
2022-10-03T02:21:24.114Z,99.90
2022-10-03T02:24:10.398Z,99.90
2022-10-03T02:27:01.865Z,99.90
2022-10-03T02:29:56.000Z,99.90
2022-10-03T02:32:41.885Z,99.90
2022-10-03T02:35:20.701Z,99.90
2022-10-03T02:38:35.866Z,99.90
2022-10-03T02:41:33.236Z,99.90
2022-10-03T02:44:23.062Z,99.90
2022-10-03T02:46:58.632Z,99.90
2022-10-03T02:49:51.029Z,99.90
2022-10-03T02:52:52.653Z,99.90
2022-10-03T02:55:57.384Z,99.90
2022-10-03T02:58:27.726Z,99.90
2022-10-03T03:01:13.561Z,99.90
2022-10-03T03:03:52.826Z,99.90
2022-10-03T03:06:41.199Z,99.90
2022-10-03T03:09:47.265Z,99.90
2022-10-03T03:12:45.464Z,99.90
2022-10-03T03:15:37.514Z,99.90
2022-10-03T03:18:20.169Z,99.90
2022-10-03T03:21:20.659Z,99.90
2022-10-03T03:23:54.582Z,99.90
2022-10-03T03:26:37.755Z,99.90
2022-10-03T03:29:31.880Z,99.90
2022-10-03T03:32:18.553Z,99.90
2022-10-03T03:34:51.512Z,99.90
2022-10-03T03:37:34.599Z,99.90
2022-10-03T03:40:23.518Z,99.90
2022-10-03T03:43:15.332Z,99.90
2022-10-03T03:46:16.363Z,99.90
2022-10-03T03:49:08.241Z,99.90
2022-10-03T03:52:13.190Z,99.90
2022-10-03T03:54:52.189Z,99.90
2022-10-03T03:57:45.595Z,99.90
2022-10-03T04:00:15.250Z,99.90
2022-10-03T04:02:46.943Z,99.90
2022-10-03T04:05:23.733Z,99.90
2022-10-03T04:08:23.189Z,99.90
2022-10-03T04:11:18.395Z,99.90
2022-10-03T04:13:59.516Z,99.90
2022-10-03T04:17:06.199Z,99.90
2022-10-03T04:19:53.897Z,99.90
2022-10-03T04:22:29.499Z,99.90
2022-10-03T04:25:08.603Z,99.90
2022-10-03T04:28:07.199Z,99.90
2022-10-03T04:30:46.266Z,99.90
2022-10-03T04:33:23.111Z,99.90
2022-10-03T04:36:18.174Z,99.90
2022-10-03T04:39:02.810Z,99.90
2022-10-03T04:41:53.059Z,99.90
2022-10-03T04:44:32.762Z,99.90
2022-10-03T04:47:21.417Z,99.90
2022-10-03T04:50:26.945Z,99.90
2022-10-03T04:53:12.312Z,99.90
2022-10-03T04:55:52.120Z,99.90
2022-10-03T04:58:43.107Z,99.90
2022-10-03T05:01:26.484Z,99.90
2022-10-03T05:04:01.152Z,99.90
2022-10-03T05:06:42.123Z,99.90
2022-10-03T05:09:24.801Z,99.90
2022-10-03T05:12:29.569Z,99.90
2022-10-03T05:15:24.100Z,99.90
2022-10-03T05:18:09.795Z,99.90
2022-10-03T05:20:49.379Z,99.90
2022-10-03T05:23:29.624Z,99.90
2022-10-03T05:26:39.841Z,99.90
2022-10-03T05:29:06.132Z,99.90
2022-10-03T05:31:45.043Z,99.90
2022-10-03T05:34:41.643Z,99.90
2022-10-03T05:37:21.281Z,99.90
2022-10-03T05:40:04.360Z,99.90
2022-10-03T05:42:42.376Z,99.90
2022-10-03T05:45:24.584Z,99.90
2022-10-03T05:48:26.213Z,99.90
2022-10-03T05:51:18.220Z,99.90
2022-10-03T05:54:04.021Z,99.90
2022-10-03T05:56:58.857Z,99.90
2022-10-03T06:00:03.439Z,99.90
2022-10-03T06:02:54.171Z,99.90
2022-10-03T06:05:41.795Z,99.90
2022-10-03T06:08:27.205Z,99.90
2022-10-03T06:11:28.624Z,99.90
2022-10-03T06:14:19.994Z,99.90
2022-10-03T06:17:02.917Z,99.90
2022-10-03T06:19:55.837Z,99.90
2022-10-03T06:23:02.406Z,99.90
2022-10-03T06:25:58.392Z,99.90
2022-10-03T06:28:59.176Z,99.90
2022-10-03T06:31:53.741Z,99.90
2022-10-03T06:34:54.761Z,99.90
2022-10-03T06:37:29.132Z,99.90
2022-10-03T06:40:32.736Z,99.90
2022-10-03T06:43:44.077Z,99.90
2022-10-03T06:46:45.965Z,99.90
2022-10-03T06:49:26.959Z,99.90
2022-10-03T06:52:25.374Z,99.90
2022-10-03T06:55:30.167Z,99.90
2022-10-03T06:58:23.226Z,99.90
2022-10-03T07:01:02.641Z,99.90
2022-10-03T07:03:56.136Z,99.90
2022-10-03T07:06:38.401Z,99.90
2022-10-03T07:09:36.281Z,99.90
2022-10-03T07:12:34.220Z,99.90
2022-10-03T07:15:50.204Z,99.90
2022-10-03T07:18:41.500Z,99.90
2022-10-03T07:21:33.324Z,99.90
2022-10-03T07:24:40.004Z,99.90
2022-10-03T07:27:50.766Z,99.90
2022-10-03T07:30:25.755Z,99.90
2022-10-03T07:33:04.954Z,99.90
2022-10-03T07:36:09.392Z,99.90
2022-10-03T07:39:26.989Z,99.90
2022-10-03T07:42:15.341Z,99.90
2022-10-03T07:45:04.191Z,99.90
2022-10-03T07:47:57.800Z,99.90
2022-10-03T07:50:51.287Z,99.90
2022-10-03T07:53:36.645Z,99.90
2022-10-03T07:56:42.817Z,99.90
2022-10-03T07:59:35.037Z,99.90
2022-10-03T08:02:40.579Z,99.90
2022-10-03T08:05:27.077Z,99.90
2022-10-03T08:08:39.545Z,99.90
2022-10-03T08:11:41.670Z,99.90
2022-10-03T08:14:27.998Z,99.90
2022-10-03T08:17:21.231Z,99.90
2022-10-03T08:19:51.687Z,99.90
2022-10-03T08:22:45.329Z,99.90
2022-10-03T08:25:40.526Z,99.90
2022-10-03T08:28:30.061Z,99.90
2022-10-03T08:31:12.125Z,99.90
2022-10-03T08:34:09.237Z,99.90
2022-10-03T08:37:14.199Z,99.90
2022-10-03T08:39:57.875Z,99.90
2022-10-03T08:42:31.176Z,99.90
2022-10-03T08:44:58.311Z,99.90
2022-10-03T08:48:02.692Z,99.90
2022-10-03T08:50:41.742Z,99.90
2022-10-03T08:53:28.318Z,99.90
2022-10-03T08:56:13.476Z,99.90
2022-10-03T08:58:59.278Z,99.90
2022-10-03T09:01:45.511Z,99.90
2022-10-03T09:04:40.238Z,99.90
2022-10-03T09:07:18.690Z,99.90
2022-10-03T09:09:49.725Z,99.90
2022-10-03T09:12:54.962Z,99.90
2022-10-03T09:15:43.392Z,99.90
2022-10-03T09:18:52.607Z,99.90
2022-10-03T09:21:44.208Z,99.90
2022-10-03T09:24:33.043Z,99.90
2022-10-03T09:27:22.712Z,99.90
2022-10-03T09:30:11.043Z,99.90
2022-10-03T09:32:47.401Z,99.90
2022-10-03T09:35:42.247Z,99.90
2022-10-03T09:38:34.222Z,99.90
2022-10-03T09:41:23.120Z,99.90
2022-10-03T09:43:53.516Z,99.90
2022-10-03T09:47:23.493Z,99.90
2022-10-03T09:50:21.631Z,99.90
2022-10-03T09:53:31.711Z,99.90
2022-10-03T09:56:23.880Z,99.90
2022-10-03T09:59:28.684Z,99.90
2022-10-03T10:02:33.672Z,99.90
2022-10-03T10:05:11.374Z,99.90
2022-10-03T10:07:38.573Z,99.90
2022-10-03T10:10:43.771Z,99.90
2022-10-03T10:13:23.205Z,99.90
2022-10-03T10:16:18.296Z,99.90
2022-10-03T10:19:04.483Z,99.90
2022-10-03T10:21:31.820Z,99.90
2022-10-03T10:24:36.763Z,99.90
2022-10-03T10:27:55.312Z,99.90
2022-10-03T10:30:33.079Z,99.90
2022-10-03T10:33:28.825Z,99.90
2022-10-03T10:36:33.809Z,99.90
2022-10-03T10:39:21.626Z,99.90
2022-10-03T10:42:36.285Z,99.90
2022-10-03T10:45:42.006Z,99.90
2022-10-03T10:48:34.424Z,92.50
2022-10-03T10:51:31.695Z,81.50
2022-10-03T10:54:17.713Z,71.10
2022-10-03T10:56:51.745Z,66.80
2022-10-03T10:59:43.578Z,63.50
2022-10-03T11:02:48.583Z,58.50
2022-10-03T11:05:46.961Z,55.60
2022-10-03T11:08:52.363Z,54.40
2022-10-03T11:11:39.232Z,53.50
2022-10-03T11:14:30.098Z,51.30
2022-10-03T11:17:06.741Z,49.60
2022-10-03T11:19:58.664Z,48.80
2022-10-03T11:22:59.983Z,48.30
2022-10-03T11:26:06.208Z,47.40
2022-10-03T11:28:42.326Z,47.40
2022-10-03T11:31:34.024Z,46.70
2022-10-03T11:34:34.914Z,46.70
2022-10-03T11:37:09.048Z,46.10
2022-10-03T11:39:57.770Z,46.30
2022-10-03T11:42:50.825Z,45.70
2022-10-03T11:45:26.054Z,45.50
2022-10-03T11:48:34.912Z,45.20
2022-10-03T11:51:19.833Z,44.70
2022-10-03T11:54:26.702Z,44.90
2022-10-03T11:57:33.469Z,44.60
2022-10-03T12:00:19.983Z,44.40
2022-10-03T12:02:47.278Z,44.20
2022-10-03T12:05:27.977Z,44.40
2022-10-03T12:08:26.035Z,44.70
2022-10-03T12:11:15.102Z,46.50
2022-10-03T12:14:01.160Z,50.00
2022-10-03T12:16:32.949Z,53.30
2022-10-03T12:19:31.164Z,57.30
2022-10-03T12:22:13.119Z,59.40
2022-10-03T12:24:43.204Z,61.20
2022-10-03T12:27:17.655Z,64.20
2022-10-03T12:29:54.930Z,64.90
2022-10-03T12:32:46.592Z,65.90
2022-10-03T12:35:38.109Z,67.70
2022-10-03T12:38:23.540Z,68.80
2022-10-03T12:40:56.673Z,69.60
2022-10-03T12:43:45.092Z,70.20
2022-10-03T12:46:26.249Z,72.90
2022-10-03T12:49:05.513Z,73.90
2022-10-03T12:52:01.178Z,74.70
2022-10-03T12:54:49.497Z,75.30
2022-10-03T12:57:53.669Z,74.00
2022-10-03T13:00:45.846Z,75.60
2022-10-03T13:03:40.738Z,76.90
2022-10-03T13:07:01.699Z,78.20
2022-10-03T13:09:35.172Z,78.30
2022-10-03T13:12:23.004Z,79.10
2022-10-03T13:15:38.996Z,82.40
2022-10-03T13:18:18.445Z,81.90
2022-10-03T13:21:45.092Z,83.10
2022-10-03T13:24:26.851Z,83.10
2022-10-03T13:27:08.393Z,82.80
2022-10-03T13:29:48.827Z,83.60
2022-10-03T13:32:33.360Z,84.00
2022-10-03T13:35:33.520Z,85.60
2022-10-03T13:38:33.236Z,86.90
2022-10-03T13:41:15.789Z,86.90
2022-10-03T13:43:56.885Z,86.70
2022-10-03T13:46:45.154Z,86.20
2022-10-03T13:49:33.868Z,88.30
2022-10-03T13:52:34.265Z,87.70
2022-10-03T13:55:09.895Z,89.70
2022-10-03T13:57:58.634Z,90.40
2022-10-03T14:00:31.666Z,90.30
2022-10-03T14:03:29.076Z,90.10
2022-10-03T14:06:15.069Z,90.60
2022-10-03T14:09:08.327Z,91.40
2022-10-03T14:11:43.773Z,91.50
2022-10-03T14:14:34.387Z,92.10
2022-10-03T14:17:25.636Z,92.40
2022-10-03T14:20:34.619Z,92.30
2022-10-03T14:23:37.490Z,92.90
2022-10-03T14:26:30.435Z,92.70
2022-10-03T14:29:05.047Z,92.90
2022-10-03T14:31:57.503Z,93.90
2022-10-03T14:34:47.612Z,94.20
2022-10-03T14:38:07.569Z,94.30
2022-10-03T14:41:04.038Z,94.80
2022-10-03T14:43:45.938Z,94.90
2022-10-03T14:46:24.369Z,94.70
2022-10-03T14:49:05.549Z,94.70
2022-10-03T14:51:44.842Z,96.30
2022-10-03T14:54:22.799Z,95.80
2022-10-03T14:56:51.964Z,95.50
2022-10-03T14:59:25.454Z,96.00
2022-10-03T15:01:55.506Z,97.00
2022-10-03T15:04:28.804Z,97.10
2022-10-03T15:07:02.732Z,97.10
2022-10-03T15:09:46.744Z,97.40
2022-10-03T15:12:24.235Z,97.90
2022-10-03T15:15:01.992Z,98.10
2022-10-03T15:17:36.845Z,98.50
2022-10-03T15:20:20.322Z,98.20
2022-10-03T15:22:57.203Z,98.80
2022-10-03T15:25:35.854Z,99.10
2022-10-03T15:28:11.799Z,99.00
2022-10-03T15:30:58.142Z,99.30
2022-10-03T15:33:37.578Z,99.60
2022-10-03T15:36:24.673Z,99.90
2022-10-03T15:39:03.993Z,99.90
2022-10-03T15:41:56.455Z,99.90
2022-10-03T15:44:33.902Z,99.90
2022-10-03T15:47:08.980Z,99.90
2022-10-03T15:50:07.124Z,99.90
2022-10-03T15:53:08.169Z,99.90
2022-10-03T15:55:50.351Z,99.90
2022-10-03T15:58:26.413Z,99.90
2022-10-03T16:01:01.837Z,99.90
2022-10-03T16:03:58.048Z,99.90
2022-10-03T16:06:35.933Z,99.90
2022-10-03T16:09:24.239Z,99.90
2022-10-03T16:12:00.525Z,99.90
2022-10-03T16:14:37.514Z,99.90
2022-10-03T16:17:26.839Z,99.90
2022-10-03T16:20:20.947Z,99.90
2022-10-03T16:23:02.808Z,99.90
2022-10-03T16:25:44.220Z,99.90
2022-10-03T16:28:34.314Z,99.90
2022-10-03T16:31:20.861Z,99.90
2022-10-03T16:34:03.746Z,99.90
2022-10-03T16:36:40.388Z,99.90
2022-10-03T16:39:21.304Z,99.90
2022-10-03T16:41:54.241Z,99.90
2022-10-03T16:44:36.085Z,99.90
2022-10-03T16:47:05.480Z,99.90
2022-10-03T16:50:08.273Z,99.90
2022-10-03T16:52:38.291Z,99.90
2022-10-03T16:55:20.376Z,99.90
2022-10-03T16:57:50.350Z,99.90
2022-10-03T17:00:23.779Z,99.90
2022-10-03T17:02:52.595Z,99.90
2022-10-03T17:05:20.531Z,99.90
2022-10-03T17:08:06.670Z,99.90
2022-10-03T17:10:52.385Z,99.90
2022-10-03T17:13:23.840Z,99.90
2022-10-03T17:15:58.478Z,99.90
2022-10-03T17:18:35.093Z,99.90
2022-10-03T17:21:18.725Z,99.90
2022-10-03T17:24:08.704Z,99.90
2022-10-03T17:26:45.509Z,99.90
2022-10-03T17:29:20.964Z,99.90
2022-10-03T17:31:59.778Z,99.90
2022-10-03T17:34:43.831Z,99.90
2022-10-03T17:37:59.787Z,99.90
2022-10-03T17:40:53.153Z,99.90
2022-10-03T17:44:06.061Z,99.90
2022-10-03T17:46:45.657Z,99.90
2022-10-03T17:49:12.939Z,99.90
2022-10-03T17:51:49.562Z,99.90
2022-10-03T17:54:35.769Z,99.90
2022-10-03T17:57:24.568Z,99.90
2022-10-03T18:00:07.673Z,99.90
2022-10-03T18:02:57.184Z,99.90
2022-10-03T18:05:29.470Z,99.90
2022-10-03T18:08:10.708Z,99.90
2022-10-03T18:10:41.643Z,99.90
2022-10-03T18:13:23.634Z,99.90
2022-10-03T18:16:07.501Z,99.90
2022-10-03T18:18:48.145Z,99.90
2022-10-03T18:21:35.962Z,99.90
2022-10-03T18:24:24.949Z,99.90
2022-10-03T18:27:19.292Z,99.90
2022-10-03T18:30:05.865Z,99.90
2022-10-03T18:32:45.609Z,99.90
2022-10-03T18:35:18.026Z,99.90
2022-10-03T18:37:45.288Z,99.90
2022-10-03T18:40:26.713Z,99.90
2022-10-03T18:42:54.645Z,99.90
2022-10-03T18:45:37.922Z,99.90
2022-10-03T18:48:34.204Z,99.90
2022-10-03T18:51:18.273Z,99.90
2022-10-03T18:53:56.931Z,99.90
2022-10-03T18:56:25.810Z,99.90
2022-10-03T18:59:07.984Z,99.90
2022-10-03T19:01:51.954Z,99.90
2022-10-03T19:04:30.115Z,99.90
2022-10-03T19:06:58.961Z,99.90
2022-10-03T19:09:35.504Z,99.90
2022-10-03T19:12:18.337Z,99.90
2022-10-03T19:14:57.389Z,99.90
2022-10-03T19:17:33.592Z,99.90
2022-10-03T19:20:15.739Z,99.90
2022-10-03T19:22:55.293Z,99.90
2022-10-03T19:25:24.806Z,99.90
2022-10-03T19:27:59.523Z,99.90
2022-10-03T19:30:30.963Z,99.90
2022-10-03T19:33:03.264Z,99.90
2022-10-03T19:35:32.284Z,99.90
2022-10-03T19:38:17.402Z,99.90
2022-10-03T19:41:05.025Z,99.90
2022-10-03T19:43:50.143Z,99.90
2022-10-03T19:46:32.788Z,99.90
2022-10-03T19:49:26.185Z,99.90
2022-10-03T19:52:21.382Z,99.90
2022-10-03T19:54:53.163Z,99.90
2022-10-03T19:57:58.740Z,99.90
2022-10-03T20:00:38.046Z,99.90
2022-10-03T20:03:07.488Z,99.90
2022-10-03T20:05:51.343Z,99.90
2022-10-03T20:08:30.448Z,99.90
2022-10-03T20:11:21.834Z,99.90
2022-10-03T20:13:50.095Z,99.90
2022-10-03T20:16:22.585Z,99.90
2022-10-03T20:18:53.747Z,99.90
2022-10-03T20:21:25.854Z,99.90
2022-10-03T20:23:57.948Z,99.90
2022-10-03T20:26:50.475Z,99.90
2022-10-03T20:29:28.476Z,99.90
2022-10-03T20:32:03.212Z,99.90
2022-10-03T20:34:31.206Z,99.90
2022-10-03T20:37:27.081Z,99.90
2022-10-03T20:40:03.236Z,99.90
2022-10-03T20:42:31.439Z,99.90
2022-10-03T20:45:13.514Z,99.90
2022-10-03T20:48:03.557Z,99.90
2022-10-03T20:50:36.474Z,99.90
2022-10-03T20:53:22.381Z,99.90
2022-10-03T20:55:54.555Z,99.90
2022-10-03T20:58:32.463Z,99.90
2022-10-03T21:01:10.255Z,99.90
2022-10-03T21:03:41.349Z,99.90
2022-10-03T21:06:26.342Z,99.90
2022-10-03T21:08:56.429Z,99.90
2022-10-03T21:11:30.285Z,99.90
2022-10-03T21:14:21.340Z,99.90
2022-10-03T21:16:53.608Z,99.90
2022-10-03T21:19:32.087Z,99.90
2022-10-03T21:22:03.700Z,99.90
2022-10-03T21:24:44.311Z,99.90
2022-10-03T21:27:19.778Z,99.90
2022-10-03T21:30:15.732Z,99.90
2022-10-03T21:32:55.193Z,99.90
2022-10-03T21:35:46.898Z,99.90
2022-10-03T21:38:26.888Z,99.90
2022-10-03T21:41:25.632Z,99.90
2022-10-03T21:44:02.821Z,99.90
2022-10-03T21:46:48.057Z,99.90
2022-10-03T21:50:01.132Z,99.90
2022-10-03T21:52:34.477Z,99.90
2022-10-03T21:55:39.211Z,99.90
2022-10-03T21:58:56.845Z,99.90
2022-10-03T22:01:52.591Z,99.90
2022-10-03T22:04:36.866Z,99.90
2022-10-03T22:07:18.240Z,99.90
2022-10-03T22:09:54.366Z,99.90
2022-10-03T22:12:23.352Z,99.90
2022-10-03T22:15:12.083Z,99.90
2022-10-03T22:17:47.557Z,99.90
2022-10-03T22:20:14.833Z,99.90
2022-10-03T22:23:19.211Z,99.90
2022-10-03T22:26:08.377Z,99.90
2022-10-03T22:28:41.996Z,99.90
2022-10-03T22:31:25.305Z,99.90
2022-10-03T22:33:59.556Z,99.90
2022-10-03T22:36:28.868Z,99.90
2022-10-03T22:38:56.441Z,99.90
2022-10-03T22:41:30.545Z,99.90
2022-10-03T22:43:59.439Z,99.90
2022-10-03T22:46:30.516Z,99.90
2022-10-03T22:49:15.530Z,99.90
2022-10-03T22:51:44.912Z,99.90
2022-10-03T22:54:15.261Z,99.90
2022-10-03T22:56:52.532Z,99.90
2022-10-03T22:59:33.325Z,99.90
2022-10-03T23:02:05.253Z,99.90
2022-10-03T23:04:38.452Z,99.90
2022-10-03T23:07:05.615Z,99.90
2022-10-03T23:09:46.896Z,99.90
2022-10-03T23:12:15.616Z,99.90
2022-10-03T23:14:48.451Z,99.90
2022-10-03T23:17:37.507Z,99.90
2022-10-03T23:20:15.373Z,99.90
2022-10-03T23:22:47.704Z,99.90
2022-10-03T23:25:31.621Z,99.90
2022-10-03T23:28:04.583Z,99.90
2022-10-03T23:30:34.671Z,99.90
2022-10-03T23:33:02.023Z,99.90
2022-10-03T23:35:43.431Z,99.90
2022-10-03T23:38:33.040Z,99.90
2022-10-03T23:41:04.679Z,99.90
2022-10-03T23:43:49.389Z,99.90
2022-10-03T23:46:22.729Z,99.90
2022-10-03T23:48:54.047Z,99.90
2022-10-03T23:51:27.012Z,99.90
2022-10-03T23:54:02.675Z,99.90
2022-10-03T23:56:48.561Z,99.90
2022-10-03T23:59:15.815Z,99.90
